sensor_id;sensor_type;location;lat;lon;timestamp;P1;durP1;ratioP1;P2;durP2;ratioP2
4468;SDS011;2247;42.666;23.292;2023-11-19T00:00:06;2.63;;;2.43;;
4468;SDS011;2247;42.666;23.292;2023-11-19T00:02:37;2.53;;;2.33;;
4468;SDS011;2247;42.666;23.292;2023-11-19T00:05:04;2.40;;;2.30;;
4468;SDS011;2247;42.666;23.292;2023-11-19T00:07:34;2.70;;;2.50;;
4468;SDS011;2247;42.666;23.292;2023-11-19T00:10:01;3.10;;;2.80;;
4468;SDS011;2247;42.666;23.292;2023-11-19T00:12:37;2.50;;;2.40;;
4468;SDS011;2247;42.666;23.292;2023-11-19T00:15:05;2.80;;;2.60;;
4468;SDS011;2247;42.666;23.292;2023-11-19T00:17:36;2.90;;;2.70;;
4468;SDS011;2247;42.666;23.292;2023-11-19T00:20:04;2.53;;;2.37;;
4468;SDS011;2247;42.666;23.292;2023-11-19T00:22:32;2.40;;;2.30;;
4468;SDS011;2247;42.666;23.292;2023-11-19T00:24:59;2.43;;;2.33;;
4468;SDS011;2247;42.666;23.292;2023-11-19T00:27:27;2.90;;;2.67;;
4468;SDS011;2247;42.666;23.292;2023-11-19T00:29:55;2.60;;;2.40;;
4468;SDS011;2247;42.666;23.292;2023-11-19T00:32:22;2.33;;;2.23;;
4468;SDS011;2247;42.666;23.292;2023-11-19T00:34:49;2.70;;;2.50;;
4468;SDS011;2247;42.666;23.292;2023-11-19T00:37:16;2.93;;;2.73;;
4468;SDS011;2247;42.666;23.292;2023-11-19T00:39:43;2.70;;;2.50;;
4468;SDS011;2247;42.666;23.292;2023-11-19T00:42:11;2.60;;;2.40;;
4468;SDS011;2247;42.666;23.292;2023-11-19T00:44:38;2.80;;;2.60;;
4468;SDS011;2247;42.666;23.292;2023-11-19T00:47:08;3.27;;;2.97;;
4468;SDS011;2247;42.666;23.292;2023-11-19T00:49:35;2.50;;;2.40;;
4468;SDS011;2247;42.666;23.292;2023-11-19T00:52:02;2.40;;;2.30;;
4468;SDS011;2247;42.666;23.292;2023-11-19T00:54:29;4.73;;;2.77;;
4468;SDS011;2247;42.666;23.292;2023-11-19T00:56:55;3.07;;;2.87;;
4468;SDS011;2247;42.666;23.292;2023-11-19T00:59:22;2.83;;;2.60;;
4468;SDS011;2247;42.666;23.292;2023-11-19T01:01:50;2.90;;;2.70;;
4468;SDS011;2247;42.666;23.292;2023-11-19T01:04:18;2.67;;;2.47;;
4468;SDS011;2247;42.666;23.292;2023-11-19T01:06:45;2.57;;;2.47;;
4468;SDS011;2247;42.666;23.292;2023-11-19T01:09:12;2.43;;;2.33;;
4468;SDS011;2247;42.666;23.292;2023-11-19T01:11:40;2.67;;;2.47;;
4468;SDS011;2247;42.666;23.292;2023-11-19T01:14:06;2.53;;;2.37;;
4468;SDS011;2247;42.666;23.292;2023-11-19T01:16:33;4.53;;;2.67;;
4468;SDS011;2247;42.666;23.292;2023-11-19T01:19:00;2.70;;;2.50;;
4468;SDS011;2247;42.666;23.292;2023-11-19T01:21:31;2.23;;;2.13;;
4468;SDS011;2247;42.666;23.292;2023-11-19T01:23:58;3.80;;;2.30;;
4468;SDS011;2247;42.666;23.292;2023-11-19T01:26:25;2.93;;;2.73;;
4468;SDS011;2247;42.666;23.292;2023-11-19T01:28:51;2.47;;;2.27;;
4468;SDS011;2247;42.666;23.292;2023-11-19T01:31:18;2.40;;;2.30;;
4468;SDS011;2247;42.666;23.292;2023-11-19T01:33:45;2.67;;;2.47;;
4468;SDS011;2247;42.666;23.292;2023-11-19T01:36:13;2.30;;;2.20;;
4468;SDS011;2247;42.666;23.292;2023-11-19T01:38:41;2.30;;;2.20;;
4468;SDS011;2247;42.666;23.292;2023-11-19T01:41:08;2.50;;;2.30;;
4468;SDS011;2247;42.666;23.292;2023-11-19T01:43:35;2.93;;;2.30;;
4468;SDS011;2247;42.666;23.292;2023-11-19T01:46:04;2.50;;;2.30;;
4468;SDS011;2247;42.666;23.292;2023-11-19T01:48:32;2.57;;;2.37;;
4468;SDS011;2247;42.666;23.292;2023-11-19T01:51:01;2.70;;;2.50;;
4468;SDS011;2247;42.666;23.292;2023-11-19T01:53:29;2.90;;;2.70;;
4468;SDS011;2247;42.666;23.292;2023-11-19T01:55:58;2.67;;;2.47;;
4468;SDS011;2247;42.666;23.292;2023-11-19T01:58:26;2.60;;;2.50;;
4468;SDS011;2247;42.666;23.292;2023-11-19T02:00:55;2.60;;;2.40;;
4468;SDS011;2247;42.666;23.292;2023-11-19T02:03:23;1.80;;;1.70;;
4468;SDS011;2247;42.666;23.292;2023-11-19T02:05:51;3.83;;;2.13;;
4468;SDS011;2247;42.666;23.292;2023-11-19T02:08:18;4.80;;;2.03;;
4468;SDS011;2247;42.666;23.292;2023-11-19T02:10:45;2.47;;;2.37;;
4468;SDS011;2247;42.666;23.292;2023-11-19T02:13:14;2.70;;;2.50;;
4468;SDS011;2247;42.666;23.292;2023-11-19T02:15:41;2.60;;;2.40;;
4468;SDS011;2247;42.666;23.292;2023-11-19T02:18:21;2.50;;;2.30;;
4468;SDS011;2247;42.666;23.292;2023-11-19T02:20:52;2.47;;;2.27;;
4468;SDS011;2247;42.666;23.292;2023-11-19T02:23:20;2.97;;;2.63;;
4468;SDS011;2247;42.666;23.292;2023-11-19T02:25:52;2.47;;;2.27;;
4468;SDS011;2247;42.666;23.292;2023-11-19T02:28:27;2.03;;;1.93;;
4468;SDS011;2247;42.666;23.292;2023-11-19T02:30:54;2.40;;;2.30;;
4468;SDS011;2247;42.666;23.292;2023-11-19T02:33:21;2.30;;;2.20;;
4468;SDS011;2247;42.666;23.292;2023-11-19T02:35:48;2.17;;;2.07;;
4468;SDS011;2247;42.666;23.292;2023-11-19T02:38:15;2.20;;;2.10;;
4468;SDS011;2247;42.666;23.292;2023-11-19T02:40:41;2.33;;;2.23;;
4468;SDS011;2247;42.666;23.292;2023-11-19T02:43:08;2.70;;;2.50;;
4468;SDS011;2247;42.666;23.292;2023-11-19T02:45:36;2.70;;;2.50;;
4468;SDS011;2247;42.666;23.292;2023-11-19T02:48:04;2.53;;;2.40;;
4468;SDS011;2247;42.666;23.292;2023-11-19T02:50:32;2.77;;;2.57;;
4468;SDS011;2247;42.666;23.292;2023-11-19T02:52:59;2.20;;;2.10;;
4468;SDS011;2247;42.666;23.292;2023-11-19T02:55:26;2.30;;;2.20;;
4468;SDS011;2247;42.666;23.292;2023-11-19T02:57:55;2.27;;;2.17;;
4468;SDS011;2247;42.666;23.292;2023-11-19T03:00:24;2.53;;;2.33;;
4468;SDS011;2247;42.666;23.292;2023-11-19T03:03:00;2.50;;;2.30;;
4468;SDS011;2247;42.666;23.292;2023-11-19T03:05:43;2.20;;;2.10;;
4468;SDS011;2247;42.666;23.292;2023-11-19T03:08:10;1.87;;;1.80;;
4468;SDS011;2247;42.666;23.292;2023-11-19T03:10:37;2.20;;;2.00;;
4468;SDS011;2247;42.666;23.292;2023-11-19T03:13:04;2.30;;;2.20;;
4468;SDS011;2247;42.666;23.292;2023-11-19T03:15:32;2.40;;;2.30;;
4468;SDS011;2247;42.666;23.292;2023-11-19T03:18:01;2.83;;;2.60;;
4468;SDS011;2247;42.666;23.292;2023-11-19T03:20:28;2.70;;;2.50;;
4468;SDS011;2247;42.666;23.292;2023-11-19T03:22:55;2.53;;;2.33;;
4468;SDS011;2247;42.666;23.292;2023-11-19T03:25:24;2.73;;;2.50;;
4468;SDS011;2247;42.666;23.292;2023-11-19T03:27:52;2.63;;;2.43;;
4468;SDS011;2247;42.666;23.292;2023-11-19T03:30:19;2.37;;;2.27;;
4468;SDS011;2247;42.666;23.292;2023-11-19T03:32:46;2.10;;;2.00;;
4468;SDS011;2247;42.666;23.292;2023-11-19T03:35:14;2.43;;;2.23;;
4468;SDS011;2247;42.666;23.292;2023-11-19T03:37:41;2.37;;;2.27;;
4468;SDS011;2247;42.666;23.292;2023-11-19T03:40:08;2.60;;;2.40;;
4468;SDS011;2247;42.666;23.292;2023-11-19T03:42:36;1.90;;;1.80;;
4468;SDS011;2247;42.666;23.292;2023-11-19T03:45:05;7.33;;;2.20;;
4468;SDS011;2247;42.666;23.292;2023-11-19T03:47:33;2.40;;;2.20;;
4468;SDS011;2247;42.666;23.292;2023-11-19T03:50:00;2.20;;;2.10;;
4468;SDS011;2247;42.666;23.292;2023-11-19T03:52:29;2.47;;;2.30;;
4468;SDS011;2247;42.666;23.292;2023-11-19T03:54:56;2.27;;;2.17;;
4468;SDS011;2247;42.666;23.292;2023-11-19T03:57:22;2.70;;;2.40;;
4468;SDS011;2247;42.666;23.292;2023-11-19T03:59:49;2.50;;;2.30;;
4468;SDS011;2247;42.666;23.292;2023-11-19T04:02:17;2.37;;;2.27;;
4468;SDS011;2247;42.666;23.292;2023-11-19T04:04:44;2.00;;;1.90;;
4468;SDS011;2247;42.666;23.292;2023-11-19T04:07:11;2.67;;;2.47;;
4468;SDS011;2247;42.666;23.292;2023-11-19T04:09:39;2.30;;;2.10;;
4468;SDS011;2247;42.666;23.292;2023-11-19T04:12:06;3.13;;;2.70;;
4468;SDS011;2247;42.666;23.292;2023-11-19T04:14:33;2.37;;;2.20;;
4468;SDS011;2247;42.666;23.292;2023-11-19T04:17:00;2.60;;;2.40;;
4468;SDS011;2247;42.666;23.292;2023-11-19T04:19:27;2.53;;;2.40;;
4468;SDS011;2247;42.666;23.292;2023-11-19T04:21:54;2.77;;;2.67;;
4468;SDS011;2247;42.666;23.292;2023-11-19T04:24:21;6.00;;;2.50;;
4468;SDS011;2247;42.666;23.292;2023-11-19T04:26:49;2.67;;;2.37;;
4468;SDS011;2247;42.666;23.292;2023-11-19T04:29:17;2.60;;;2.40;;
4468;SDS011;2247;42.666;23.292;2023-11-19T04:31:44;2.20;;;2.10;;
4468;SDS011;2247;42.666;23.292;2023-11-19T04:34:12;2.20;;;2.10;;
4468;SDS011;2247;42.666;23.292;2023-11-19T04:36:39;2.77;;;2.57;;
4468;SDS011;2247;42.666;23.292;2023-11-19T04:39:06;2.50;;;2.30;;
4468;SDS011;2247;42.666;23.292;2023-11-19T04:41:44;2.80;;;2.60;;
4468;SDS011;2247;42.666;23.292;2023-11-19T04:44:13;2.60;;;2.40;;
4468;SDS011;2247;42.666;23.292;2023-11-19T04:46:41;2.20;;;2.10;;
4468;SDS011;2247;42.666;23.292;2023-11-19T04:49:09;2.67;;;2.47;;
4468;SDS011;2247;42.666;23.292;2023-11-19T04:51:37;2.67;;;2.20;;
4468;SDS011;2247;42.666;23.292;2023-11-19T04:54:05;2.60;;;2.40;;
4468;SDS011;2247;42.666;23.292;2023-11-19T04:56:33;2.53;;;2.43;;
4468;SDS011;2247;42.666;23.292;2023-11-19T04:59:00;2.23;;;2.13;;
4468;SDS011;2247;42.666;23.292;2023-11-19T05:32:32;1.97;;;1.87;;
4468;SDS011;2247;42.666;23.292;2023-11-19T06:11:43;6.90;;;2.25;;
4468;SDS011;2247;42.666;23.292;2023-11-19T06:24:32;2.50;;;2.40;;
4468;SDS011;2247;42.666;23.292;2023-11-19T06:40:26;3.07;;;2.87;;
4468;SDS011;2247;42.666;23.292;2023-11-19T06:42:53;3.47;;;2.17;;
4468;SDS011;2247;42.666;23.292;2023-11-19T06:45:20;2.63;;;2.43;;
4468;SDS011;2247;42.666;23.292;2023-11-19T06:47:48;2.63;;;2.43;;
4468;SDS011;2247;42.666;23.292;2023-11-19T06:50:15;2.80;;;2.60;;
4468;SDS011;2247;42.666;23.292;2023-11-19T06:52:44;3.03;;;2.83;;
4468;SDS011;2247;42.666;23.292;2023-11-19T06:55:11;2.63;;;2.43;;
4468;SDS011;2247;42.666;23.292;2023-11-19T06:57:40;2.40;;;2.30;;
4468;SDS011;2247;42.666;23.292;2023-11-19T07:00:07;3.67;;;3.03;;
4468;SDS011;2247;42.666;23.292;2023-11-19T07:02:34;2.50;;;2.30;;
4468;SDS011;2247;42.666;23.292;2023-11-19T07:05:01;2.90;;;2.40;;
4468;SDS011;2247;42.666;23.292;2023-11-19T07:07:30;3.00;;;2.67;;
4468;SDS011;2247;42.666;23.292;2023-11-19T07:09:57;2.83;;;2.63;;
4468;SDS011;2247;42.666;23.292;2023-11-19T07:12:23;3.13;;;2.83;;
4468;SDS011;2247;42.666;23.292;2023-11-19T07:14:53;3.10;;;2.87;;
4468;SDS011;2247;42.666;23.292;2023-11-19T07:17:21;3.60;;;3.00;;
4468;SDS011;2247;42.666;23.292;2023-11-19T07:19:49;2.93;;;2.73;;
4468;SDS011;2247;42.666;23.292;2023-11-19T07:22:16;3.60;;;3.20;;
4468;SDS011;2247;42.666;23.292;2023-11-19T07:24:43;4.70;;;2.83;;
4468;SDS011;2247;42.666;23.292;2023-11-19T07:27:11;3.90;;;3.50;;
4468;SDS011;2247;42.666;23.292;2023-11-19T07:29:38;3.97;;;3.57;;
4468;SDS011;2247;42.666;23.292;2023-11-19T07:32:08;3.70;;;3.40;;
4468;SDS011;2247;42.666;23.292;2023-11-19T07:34:36;3.83;;;3.50;;
4468;SDS011;2247;42.666;23.292;2023-11-19T07:37:03;3.97;;;3.10;;
4468;SDS011;2247;42.666;23.292;2023-11-19T07:39:30;3.20;;;2.90;;
4468;SDS011;2247;42.666;23.292;2023-11-19T07:41:59;3.07;;;2.87;;
4468;SDS011;2247;42.666;23.292;2023-11-19T07:44:26;3.60;;;3.30;;
4468;SDS011;2247;42.666;23.292;2023-11-19T07:46:57;2.90;;;2.70;;
4468;SDS011;2247;42.666;23.292;2023-11-19T07:49:27;2.77;;;2.57;;
4468;SDS011;2247;42.666;23.292;2023-11-19T07:51:54;7.80;;;3.60;;
4468;SDS011;2247;42.666;23.292;2023-11-19T07:54:21;3.57;;;3.20;;
4468;SDS011;2247;42.666;23.292;2023-11-19T07:56:48;3.30;;;3.00;;
4468;SDS011;2247;42.666;23.292;2023-11-19T07:59:15;4.70;;;3.70;;
4468;SDS011;2247;42.666;23.292;2023-11-19T08:01:42;3.40;;;3.13;;
4468;SDS011;2247;42.666;23.292;2023-11-19T08:04:09;3.37;;;3.07;;
4468;SDS011;2247;42.666;23.292;2023-11-19T08:06:39;3.53;;;3.23;;
4468;SDS011;2247;42.666;23.292;2023-11-19T08:09:06;5.00;;;3.20;;
4468;SDS011;2247;42.666;23.292;2023-11-19T08:11:38;3.87;;;3.13;;
4468;SDS011;2247;42.666;23.292;2023-11-19T08:14:06;3.03;;;2.80;;
4468;SDS011;2247;42.666;23.292;2023-11-19T08:16:34;3.40;;;3.10;;
4468;SDS011;2247;42.666;23.292;2023-11-19T08:19:03;3.57;;;3.27;;
4468;SDS011;2247;42.666;23.292;2023-11-19T08:21:30;3.33;;;3.03;;
4468;SDS011;2247;42.666;23.292;2023-11-19T08:23:59;5.10;;;3.30;;
4468;SDS011;2247;42.666;23.292;2023-11-19T08:26:27;3.17;;;2.97;;
4468;SDS011;2247;42.666;23.292;2023-11-19T08:28:55;3.30;;;2.80;;
4468;SDS011;2247;42.666;23.292;2023-11-19T08:31:24;4.53;;;3.20;;
4468;SDS011;2247;42.666;23.292;2023-11-19T08:33:55;3.50;;;3.20;;
4468;SDS011;2247;42.666;23.292;2023-11-19T08:36:23;3.10;;;2.90;;
4468;SDS011;2247;42.666;23.292;2023-11-19T08:39:07;4.13;;;3.23;;
4468;SDS011;2247;42.666;23.292;2023-11-19T08:41:34;4.83;;;4.00;;
4468;SDS011;2247;42.666;23.292;2023-11-19T08:44:03;3.80;;;3.50;;
4468;SDS011;2247;42.666;23.292;2023-11-19T08:46:30;3.57;;;3.27;;
4468;SDS011;2247;42.666;23.292;2023-11-19T08:48:57;3.27;;;3.00;;
4468;SDS011;2247;42.666;23.292;2023-11-19T08:51:25;3.27;;;2.97;;
4468;SDS011;2247;42.666;23.292;2023-11-19T08:53:53;3.57;;;3.27;;
4468;SDS011;2247;42.666;23.292;2023-11-19T08:56:22;3.50;;;3.20;;
4468;SDS011;2247;42.666;23.292;2023-11-19T08:58:49;3.33;;;3.03;;
4468;SDS011;2247;42.666;23.292;2023-11-19T09:01:16;3.30;;;3.00;;
4468;SDS011;2247;42.666;23.292;2023-11-19T09:03:43;4.23;;;3.27;;
4468;SDS011;2247;42.666;23.292;2023-11-19T09:06:10;3.20;;;2.93;;
4468;SDS011;2247;42.666;23.292;2023-11-19T09:08:37;3.53;;;3.23;;
4468;SDS011;2247;42.666;23.292;2023-11-19T09:11:06;3.37;;;3.07;;
4468;SDS011;2247;42.666;23.292;2023-11-19T09:13:35;3.70;;;3.40;;
4468;SDS011;2247;42.666;23.292;2023-11-19T09:16:03;4.33;;;3.90;;
4468;SDS011;2247;42.666;23.292;2023-11-19T09:18:30;4.07;;;3.67;;
4468;SDS011;2247;42.666;23.292;2023-11-19T09:20:57;3.90;;;3.50;;
4468;SDS011;2247;42.666;23.292;2023-11-19T09:23:24;5.10;;;3.90;;
4468;SDS011;2247;42.666;23.292;2023-11-19T09:25:53;3.07;;;2.87;;
4468;SDS011;2247;42.666;23.292;2023-11-19T09:28:20;3.53;;;3.23;;
4468;SDS011;2247;42.666;23.292;2023-11-19T09:30:49;3.77;;;3.00;;
4468;SDS011;2247;42.666;23.292;2023-11-19T09:33:16;3.17;;;2.90;;
4468;SDS011;2247;42.666;23.292;2023-11-19T09:35:42;5.43;;;3.10;;
4468;SDS011;2247;42.666;23.292;2023-11-19T09:38:10;3.40;;;3.10;;
4468;SDS011;2247;42.666;23.292;2023-11-19T09:40:37;3.27;;;2.97;;
4468;SDS011;2247;42.666;23.292;2023-11-19T09:43:05;3.37;;;2.70;;
4468;SDS011;2247;42.666;23.292;2023-11-19T09:45:37;3.40;;;3.20;;
4468;SDS011;2247;42.666;23.292;2023-11-19T09:48:16;3.63;;;3.13;;
4468;SDS011;2247;42.666;23.292;2023-11-19T09:50:44;3.37;;;3.07;;
4468;SDS011;2247;42.666;23.292;2023-11-19T09:53:13;4.53;;;3.50;;
4468;SDS011;2247;42.666;23.292;2023-11-19T09:55:42;4.37;;;3.50;;
4468;SDS011;2247;42.666;23.292;2023-11-19T09:58:11;3.47;;;3.17;;
4468;SDS011;2247;42.666;23.292;2023-11-19T10:00:41;3.43;;;3.13;;
4468;SDS011;2247;42.666;23.292;2023-11-19T10:03:08;3.67;;;3.37;;
4468;SDS011;2247;42.666;23.292;2023-11-19T10:05:38;7.80;;;3.30;;
4468;SDS011;2247;42.666;23.292;2023-11-19T10:08:06;3.67;;;3.23;;
4468;SDS011;2247;42.666;23.292;2023-11-19T10:10:33;3.07;;;2.87;;
4468;SDS011;2247;42.666;23.292;2023-11-19T10:13:00;2.90;;;2.70;;
4468;SDS011;2247;42.666;23.292;2023-11-19T10:15:27;3.30;;;2.90;;
4468;SDS011;2247;42.666;23.292;2023-11-19T10:17:55;3.53;;;3.23;;
4468;SDS011;2247;42.666;23.292;2023-11-19T10:20:22;2.60;;;2.40;;
4468;SDS011;2247;42.666;23.292;2023-11-19T10:22:53;3.33;;;3.03;;
4468;SDS011;2247;42.666;23.292;2023-11-19T10:25:21;2.47;;;2.33;;
4468;SDS011;2247;42.666;23.292;2023-11-19T10:27:50;2.73;;;2.53;;
4468;SDS011;2247;42.666;23.292;2023-11-19T10:30:17;2.80;;;2.60;;
4468;SDS011;2247;42.666;23.292;2023-11-19T10:32:45;3.20;;;2.97;;
4468;SDS011;2247;42.666;23.292;2023-11-19T10:35:12;3.33;;;3.13;;
4468;SDS011;2247;42.666;23.292;2023-11-19T10:37:41;3.30;;;2.90;;
4468;SDS011;2247;42.666;23.292;2023-11-19T10:40:10;3.10;;;2.90;;
4468;SDS011;2247;42.666;23.292;2023-11-19T10:42:39;3.00;;;2.80;;
4468;SDS011;2247;42.666;23.292;2023-11-19T10:45:19;2.80;;;2.60;;
4468;SDS011;2247;42.666;23.292;2023-11-19T10:50:24;3.80;;;3.10;;
4468;SDS011;2247;42.666;23.292;2023-11-19T10:52:53;3.13;;;2.87;;
4468;SDS011;2247;42.666;23.292;2023-11-19T10:58:02;2.87;;;2.67;;
4468;SDS011;2247;42.666;23.292;2023-11-19T11:00:32;2.63;;;2.43;;
4468;SDS011;2247;42.666;23.292;2023-11-19T11:03:05;2.50;;;2.30;;
4468;SDS011;2247;42.666;23.292;2023-11-19T11:05:36;2.40;;;2.30;;
4468;SDS011;2247;42.666;23.292;2023-11-19T11:08:05;3.23;;;2.60;;
4468;SDS011;2247;42.666;23.292;2023-11-19T11:10:34;2.87;;;2.67;;
4468;SDS011;2247;42.666;23.292;2023-11-19T11:13:07;2.73;;;2.53;;
4468;SDS011;2247;42.666;23.292;2023-11-19T11:15:34;2.73;;;2.50;;
4468;SDS011;2247;42.666;23.292;2023-11-19T11:18:02;2.63;;;2.43;;
4468;SDS011;2247;42.666;23.292;2023-11-19T11:20:29;2.90;;;2.70;;
4468;SDS011;2247;42.666;23.292;2023-11-19T11:23:03;2.73;;;2.47;;
4468;SDS011;2247;42.666;23.292;2023-11-19T11:25:44;3.27;;;2.20;;
4468;SDS011;2247;42.666;23.292;2023-11-19T11:28:23;4.40;;;2.50;;
4468;SDS011;2247;42.666;23.292;2023-11-19T11:31:06;2.63;;;2.43;;
4468;SDS011;2247;42.666;23.292;2023-11-19T11:33:58;2.80;;;2.60;;
4468;SDS011;2247;42.666;23.292;2023-11-19T11:36:48;4.50;;;2.50;;
4468;SDS011;2247;42.666;23.292;2023-11-19T11:39:22;2.80;;;2.50;;
4468;SDS011;2247;42.666;23.292;2023-11-19T11:45:02;2.97;;;2.67;;
4468;SDS011;2247;42.666;23.292;2023-11-19T11:50:50;2.00;;;1.90;;
4468;SDS011;2247;42.666;23.292;2023-11-19T11:53:27;2.90;;;2.70;;
4468;SDS011;2247;42.666;23.292;2023-11-19T11:56:00;2.90;;;2.70;;
4468;SDS011;2247;42.666;23.292;2023-11-19T11:58:35;2.40;;;2.23;;
4468;SDS011;2247;42.666;23.292;2023-11-19T12:01:05;2.53;;;2.33;;
4468;SDS011;2247;42.666;23.292;2023-11-19T12:03:32;2.83;;;2.63;;
4468;SDS011;2247;42.666;23.292;2023-11-19T12:06:00;2.10;;;2.00;;
4468;SDS011;2247;42.666;23.292;2023-11-19T12:08:28;2.53;;;2.40;;
4468;SDS011;2247;42.666;23.292;2023-11-19T12:10:56;2.60;;;2.40;;
4468;SDS011;2247;42.666;23.292;2023-11-19T12:13:29;3.10;;;2.37;;
4468;SDS011;2247;42.666;23.292;2023-11-19T12:16:14;5.33;;;2.70;;
4468;SDS011;2247;42.666;23.292;2023-11-19T12:18:41;2.90;;;2.60;;
4468;SDS011;2247;42.666;23.292;2023-11-19T12:21:08;2.10;;;2.00;;
4468;SDS011;2247;42.666;23.292;2023-11-19T12:23:43;2.33;;;2.20;;
4468;SDS011;2247;42.666;23.292;2023-11-19T12:26:35;2.30;;;2.10;;
4468;SDS011;2247;42.666;23.292;2023-11-19T12:29:05;2.50;;;2.30;;
4468;SDS011;2247;42.666;23.292;2023-11-19T12:31:34;3.10;;;2.70;;
4468;SDS011;2247;42.666;23.292;2023-11-19T12:34:10;2.60;;;2.40;;
4468;SDS011;2247;42.666;23.292;2023-11-19T12:36:38;2.60;;;2.40;;
4468;SDS011;2247;42.666;23.292;2023-11-19T12:39:07;2.40;;;2.20;;
4468;SDS011;2247;42.666;23.292;2023-11-19T12:41:50;2.40;;;2.20;;
4468;SDS011;2247;42.666;23.292;2023-11-19T12:44:18;2.90;;;2.27;;
4468;SDS011;2247;42.666;23.292;2023-11-19T12:46:47;2.47;;;2.27;;
4468;SDS011;2247;42.666;23.292;2023-11-19T12:49:27;3.03;;;2.50;;
4468;SDS011;2247;42.666;23.292;2023-11-19T12:51:54;3.27;;;2.97;;
4468;SDS011;2247;42.666;23.292;2023-11-19T12:54:31;2.80;;;2.60;;
4468;SDS011;2247;42.666;23.292;2023-11-19T12:57:03;2.80;;;2.60;;
4468;SDS011;2247;42.666;23.292;2023-11-19T12:59:31;3.13;;;2.93;;
4468;SDS011;2247;42.666;23.292;2023-11-19T13:02:02;4.90;;;3.93;;
4468;SDS011;2247;42.666;23.292;2023-11-19T13:04:30;5.70;;;3.70;;
4468;SDS011;2247;42.666;23.292;2023-11-19T13:06:57;5.33;;;3.93;;
4468;SDS011;2247;42.666;23.292;2023-11-19T13:09:25;4.23;;;3.77;;
4468;SDS011;2247;42.666;23.292;2023-11-19T13:11:54;5.80;;;4.70;;
4468;SDS011;2247;42.666;23.292;2023-11-19T13:14:23;6.20;;;4.80;;
4468;SDS011;2247;42.666;23.292;2023-11-19T13:17:05;5.73;;;4.90;;
4468;SDS011;2247;42.666;23.292;2023-11-19T13:19:32;4.30;;;3.73;;
4468;SDS011;2247;42.666;23.292;2023-11-19T13:22:00;5.20;;;4.13;;
4468;SDS011;2247;42.666;23.292;2023-11-19T13:24:27;5.53;;;4.00;;
4468;SDS011;2247;42.666;23.292;2023-11-19T13:26:57;5.20;;;3.50;;
4468;SDS011;2247;42.666;23.292;2023-11-19T13:29:24;3.00;;;2.70;;
4468;SDS011;2247;42.666;23.292;2023-11-19T13:31:51;2.50;;;2.30;;
4468;SDS011;2247;42.666;23.292;2023-11-19T13:34:22;2.70;;;2.43;;
4468;SDS011;2247;42.666;23.292;2023-11-19T13:36:49;2.27;;;2.10;;
4468;SDS011;2247;42.666;23.292;2023-11-19T13:39:16;3.10;;;2.20;;
4468;SDS011;2247;42.666;23.292;2023-11-19T13:41:48;3.10;;;2.20;;
4468;SDS011;2247;42.666;23.292;2023-11-19T13:44:15;2.47;;;2.07;;
4468;SDS011;2247;42.666;23.292;2023-11-19T13:46:44;2.20;;;2.00;;
4468;SDS011;2247;42.666;23.292;2023-11-19T13:49:11;2.87;;;2.33;;
4468;SDS011;2247;42.666;23.292;2023-11-19T13:51:39;2.10;;;2.00;;
4468;SDS011;2247;42.666;23.292;2023-11-19T13:54:06;2.53;;;2.10;;
4468;SDS011;2247;42.666;23.292;2023-11-19T13:56:33;2.20;;;1.90;;
4468;SDS011;2247;42.666;23.292;2023-11-19T13:59:01;1.90;;;1.80;;
4468;SDS011;2247;42.666;23.292;2023-11-19T14:01:27;2.57;;;2.37;;
4468;SDS011;2247;42.666;23.292;2023-11-19T14:03:54;2.83;;;2.60;;
4468;SDS011;2247;42.666;23.292;2023-11-19T14:06:21;2.10;;;2.00;;
4468;SDS011;2247;42.666;23.292;2023-11-19T14:08:57;3.37;;;2.87;;
4468;SDS011;2247;42.666;23.292;2023-11-19T14:11:26;2.70;;;2.43;;
4468;SDS011;2247;42.666;23.292;2023-11-19T14:13:54;4.00;;;2.83;;
4468;SDS011;2247;42.666;23.292;2023-11-19T14:16:21;2.83;;;2.63;;
4468;SDS011;2247;42.666;23.292;2023-11-19T14:18:48;2.77;;;2.57;;
4468;SDS011;2247;42.666;23.292;2023-11-19T14:21:16;6.53;;;2.97;;
4468;SDS011;2247;42.666;23.292;2023-11-19T14:23:53;3.80;;;3.20;;
4468;SDS011;2247;42.666;23.292;2023-11-19T14:26:27;4.47;;;3.10;;
4468;SDS011;2247;42.666;23.292;2023-11-19T14:28:57;3.50;;;2.77;;
4468;SDS011;2247;42.666;23.292;2023-11-19T14:31:27;2.73;;;2.53;;
4468;SDS011;2247;42.666;23.292;2023-11-19T14:33:54;5.67;;;2.93;;
4468;SDS011;2247;42.666;23.292;2023-11-19T14:36:22;3.00;;;2.60;;
4468;SDS011;2247;42.666;23.292;2023-11-19T14:38:50;3.70;;;3.13;;
4468;SDS011;2247;42.666;23.292;2023-11-19T14:43:53;9.33;;;3.70;;
4468;SDS011;2247;42.666;23.292;2023-11-19T14:46:21;10.70;;;4.63;;
4468;SDS011;2247;42.666;23.292;2023-11-19T14:48:50;9.40;;;5.13;;
4468;SDS011;2247;42.666;23.292;2023-11-19T14:51:16;15.47;;;6.30;;
4468;SDS011;2247;42.666;23.292;2023-11-19T14:53:43;9.80;;;6.20;;
4468;SDS011;2247;42.666;23.292;2023-11-19T14:56:11;9.17;;;6.90;;
4468;SDS011;2247;42.666;23.292;2023-11-19T14:58:39;10.80;;;6.20;;
4468;SDS011;2247;42.666;23.292;2023-11-19T15:01:07;9.10;;;5.90;;
4468;SDS011;2247;42.666;23.292;2023-11-19T15:03:40;9.23;;;6.33;;
4468;SDS011;2247;42.666;23.292;2023-11-19T15:06:07;8.97;;;6.27;;
4468;SDS011;2247;42.666;23.292;2023-11-19T15:08:36;12.07;;;7.20;;
4468;SDS011;2247;42.666;23.292;2023-11-19T15:11:03;16.00;;;8.53;;
4468;SDS011;2247;42.666;23.292;2023-11-19T15:13:31;18.73;;;9.70;;
4468;SDS011;2247;42.666;23.292;2023-11-19T15:15:59;19.83;;;9.97;;
4468;SDS011;2247;42.666;23.292;2023-11-19T15:18:27;16.87;;;9.97;;
4468;SDS011;2247;42.666;23.292;2023-11-19T15:20:54;19.53;;;10.77;;
4468;SDS011;2247;42.666;23.292;2023-11-19T15:23:21;19.17;;;10.70;;
4468;SDS011;2247;42.666;23.292;2023-11-19T15:25:50;17.07;;;8.90;;
4468;SDS011;2247;42.666;23.292;2023-11-19T15:28:17;18.10;;;10.20;;
4468;SDS011;2247;42.666;23.292;2023-11-19T15:30:44;24.83;;;9.07;;
4468;SDS011;2247;42.666;23.292;2023-11-19T15:33:11;17.23;;;10.10;;
4468;SDS011;2247;42.666;23.292;2023-11-19T15:35:40;19.63;;;9.80;;
4468;SDS011;2247;42.666;23.292;2023-11-19T15:38:07;16.20;;;9.40;;
4468;SDS011;2247;42.666;23.292;2023-11-19T15:40:34;19.77;;;9.73;;
4468;SDS011;2247;42.666;23.292;2023-11-19T15:43:02;35.87;;;9.87;;
4468;SDS011;2247;42.666;23.292;2023-11-19T15:45:32;17.70;;;9.63;;
4468;SDS011;2247;42.666;23.292;2023-11-19T15:48:02;12.53;;;8.10;;
4468;SDS011;2247;42.666;23.292;2023-11-19T15:50:30;15.40;;;8.60;;
4468;SDS011;2247;42.666;23.292;2023-11-19T15:52:59;18.40;;;9.40;;
4468;SDS011;2247;42.666;23.292;2023-11-19T15:55:27;14.73;;;8.50;;
4468;SDS011;2247;42.666;23.292;2023-11-19T15:57:54;12.57;;;6.33;;
4468;SDS011;2247;42.666;23.292;2023-11-19T16:00:21;11.20;;;6.37;;
4468;SDS011;2247;42.666;23.292;2023-11-19T16:02:48;11.33;;;6.30;;
4468;SDS011;2247;42.666;23.292;2023-11-19T16:05:15;10.77;;;6.00;;
4468;SDS011;2247;42.666;23.292;2023-11-19T16:07:42;8.03;;;5.70;;
4468;SDS011;2247;42.666;23.292;2023-11-19T16:10:11;8.43;;;5.70;;
4468;SDS011;2247;42.666;23.292;2023-11-19T16:12:38;10.07;;;6.40;;
4468;SDS011;2247;42.666;23.292;2023-11-19T16:15:06;11.67;;;6.40;;
4468;SDS011;2247;42.666;23.292;2023-11-19T16:17:34;9.83;;;5.97;;
4468;SDS011;2247;42.666;23.292;2023-11-19T16:20:01;11.80;;;6.50;;
4468;SDS011;2247;42.666;23.292;2023-11-19T16:22:31;11.20;;;6.63;;
4468;SDS011;2247;42.666;23.292;2023-11-19T16:24:59;11.97;;;6.03;;
4468;SDS011;2247;42.666;23.292;2023-11-19T16:27:27;8.77;;;5.90;;
4468;SDS011;2247;42.666;23.292;2023-11-19T16:29:54;12.03;;;6.30;;
4468;SDS011;2247;42.666;23.292;2023-11-19T16:32:21;11.67;;;7.20;;
4468;SDS011;2247;42.666;23.292;2023-11-19T16:34:48;15.00;;;8.87;;
4468;SDS011;2247;42.666;23.292;2023-11-19T16:37:15;13.80;;;7.10;;
4468;SDS011;2247;42.666;23.292;2023-11-19T16:39:42;17.03;;;7.97;;
4468;SDS011;2247;42.666;23.292;2023-11-19T16:42:09;11.43;;;7.30;;
4468;SDS011;2247;42.666;23.292;2023-11-19T16:44:37;12.13;;;7.20;;
4468;SDS011;2247;42.666;23.292;2023-11-19T16:47:05;11.47;;;7.07;;
4468;SDS011;2247;42.666;23.292;2023-11-19T16:49:32;18.53;;;8.43;;
4468;SDS011;2247;42.666;23.292;2023-11-19T16:52:01;15.00;;;8.60;;
4468;SDS011;2247;42.666;23.292;2023-11-19T16:54:29;15.40;;;9.53;;